Date,TemperatureHighF,TemperatureAvgF,TemperatureLowF,DewpointHighF,DewpointAvgF,DewpointLowF,HumidityHigh,HumidityAvg,HumidityLow,PressureMaxIn,PressureMinIn,WindSpeedMaxMPH,WindSpeedAvgMPH,GustSpeedMaxMPH,PrecipitationSumIn
2014-3-1,45.0,38.8,34.7,99.9,99.9,99.9,0,0,100,29.55,29.22,36,13,42,0.14
2014-3-2,43.7,40.5,34.7,99.9,99.9,99.9,0,0,100,29.23,28.80,21,11,26,0.02
2014-3-3,46.4,40.0,35.4,99.9,99.9,99.9,0,0,100,29.31,28.81,17,8,24,0.02
2014-3-4,46.4,41.7,35.4,99.9,99.9,99.9,0,0,100,29.76,29.26,26,13,37,0.00
2014-3-5,46.6,43.6,38.8,99.9,99.9,99.9,0,0,100,29.94,29.75,34,16,46,0.00
2014-3-6,52.2,48.1,44.4,99.9,99.9,99.9,0,0,100,29.98,29.75,30,16,40,0.04
2014-3-7,48.9,40.9,34.0,99.9,99.9,99.9,0,0,100,30.23,29.64,42,18,65,0.13
2014-3-8,50.9,45.8,36.9,99.9,99.9,99.9,0,0,100,30.22,29.79,52,25,70,1.89
2014-3-9,47.8,44.3,38.8,99.9,99.9,99.9,0,0,100,30.15,29.83,27,9,34,0.13
2014-3-10,51.1,42.0,35.6,99.9,99.9,99.9,0,0,100,30.55,30.18,13,6,15,0.02
2014-3-11,55.9,45.4,37.0,99.9,99.9,99.9,0,0,100,30.60,30.52,13,6,17,0.00
2014-3-12,55.4,46.3,33.6,99.9,99.9,99.9,0,0,100,30.53,30.36,14,5,21,0.00
2014-3-13,50.2,46.1,39.2,99.9,99.9,99.9,0,0,100,30.44,30.32,18,8,25,0.00
2014-3-14,48.9,46.3,43.9,99.9,99.9,99.9,0,0,100,30.37,29.99,45,18,116,0.00
2014-3-15,45.9,44.7,42.8,99.9,99.9,99.9,0,0,100,30.13,30.07,26,18,36,0.00
2014-3-16,51.4,47.3,43.2,99.9,99.9,99.9,0,0,100,30.12,29.99,36,23,46,0.00
2014-3-17,50.4,46.2,42.6,99.9,99.9,99.9,0,0,100,29.99,28.41,26,16,37,0.00
2014-3-18,50.2,45.8,41.9,99.9,99.9,99.9,0,0,100,29.86,29.62,31,17,41,0.01
2014-3-19,52.5,49.5,45.3,99.9,99.9,99.9,0,0,100,29.83,29.52,39,22,50,0.26
2014-3-20,47.5,42.5,36.9,99.9,99.9,99.9,0,0,100,29.51,29.24,43,19,66,2.20
2014-3-21,45.9,40.1,36.1,99.9,99.9,99.9,0,0,100,29.40,29.19,39,18,47,0.07
2014-3-22,44.2,37.9,33.1,99.9,99.9,99.9,0,0,100,29.38,29.14,22,11,30,0.01
2014-3-23,48.4,39.4,30.6,99.9,99.9,99.9,0,0,100,29.91,29.38,23,9,30,0.00
2014-3-24,51.1,41.8,28.6,99.9,99.9,99.9,0,0,100,29.89,29.60,29,13,40,0.00
2014-3-25,50.7,44.3,30.0,99.9,99.9,99.9,0,0,100,30.14,29.53,229,7,229,0.00
2014-3-26,49.8,42.2,34.7,99.9,99.9,99.9,0,0,100,30.25,30.03,24,9,35,0.00
2014-3-27,47.3,41.0,36.7,99.9,99.9,99.9,0,0,100,30.18,29.95,24,12,33,0.06
2014-3-28,46.6,40.2,37.2,99.9,99.9,99.9,0,0,100,30.24,30.14,24,13,33,0.01
2014-3-29,48.7,42.4,38.7,99.9,99.9,99.9,0,0,100,30.15,30.05,19,11,30,0.25
2014-3-30,43.2,41.9,40.5,99.9,99.9,99.9,0,0,100,30.07,29.97,22,8,27,0.00
2014-3-31,43.2,42.2,41.2,99.9,99.9,99.9,0,0,100,30.04,29.93,14,8,20,0.00